createdAt,value
2017-07-18T00:01:49.714Z,73.50
2017-07-18T00:04:17.710Z,73.50
2017-07-18T00:06:45.243Z,73.40
2017-07-18T00:09:12.764Z,73.40
2017-07-18T00:11:40.592Z,73.40
2017-07-18T00:14:08.146Z,73.40
2017-07-18T00:16:36.691Z,73.50
2017-07-18T00:19:05.315Z,73.70
2017-07-18T00:21:32.840Z,73.70
2017-07-18T00:24:01.161Z,73.80
2017-07-18T00:26:28.966Z,73.80
2017-07-18T00:28:56.489Z,73.90
2017-07-18T00:31:24.027Z,74.00
2017-07-18T00:33:51.925Z,74.10
2017-07-18T00:36:20.447Z,74.10
2017-07-18T00:38:48.725Z,74.60
2017-07-18T00:41:17.363Z,74.70
2017-07-18T00:43:44.865Z,74.70
2017-07-18T00:46:12.414Z,74.80
2017-07-18T00:48:40.246Z,74.90
2017-07-18T00:51:07.834Z,75.00
2017-07-18T00:53:35.369Z,75.20
2017-07-18T00:56:04.272Z,75.30
2017-07-18T00:58:31.798Z,75.30
2017-07-18T01:00:59.326Z,75.40
2017-07-18T01:03:27.135Z,75.60
2017-07-18T01:05:54.661Z,75.70
2017-07-18T01:08:22.955Z,75.60
2017-07-18T01:10:50.866Z,75.60
2017-07-18T01:13:18.378Z,75.60
2017-07-18T01:15:46.653Z,75.40
2017-07-18T01:18:14.591Z,75.50
2017-07-18T01:20:42.124Z,75.20
2017-07-18T01:23:09.667Z,75.20
2017-07-18T01:25:37.674Z,75.10
2017-07-18T01:28:05.189Z,75.00
2017-07-18T01:30:32.745Z,75.00
2017-07-18T01:33:00.618Z,74.90
2017-07-18T01:35:28.165Z,75.00
2017-07-18T01:37:55.701Z,74.90
2017-07-18T01:40:23.532Z,74.80
2017-07-18T01:42:51.065Z,74.80
2017-07-18T01:45:18.593Z,74.80
2017-07-18T01:47:47.225Z,75.40
2017-07-18T01:50:14.747Z,74.60
2017-07-18T01:52:43.223Z,74.60
2017-07-18T01:55:11.867Z,74.60
2017-07-18T01:57:39.374Z,74.60
2017-07-18T02:00:07.666Z,74.80
2017-07-18T02:02:35.481Z,74.80
2017-07-18T02:05:03.016Z,74.90
2017-07-18T02:07:30.551Z,74.80
2017-07-18T02:09:58.438Z,74.80
2017-07-18T02:12:25.953Z,75.00
2017-07-18T02:14:53.479Z,75.10
2017-07-18T02:17:21.349Z,75.10
2017-07-18T02:19:48.878Z,75.20
2017-07-18T02:22:16.413Z,75.30
2017-07-18T02:24:44.364Z,75.30
2017-07-18T02:27:11.908Z,75.30
2017-07-18T02:29:39.428Z,75.30
2017-07-18T02:32:07.320Z,75.30
2017-07-18T02:34:34.850Z,75.30
2017-07-18T02:37:02.357Z,75.30
2017-07-18T02:39:30.214Z,75.30
2017-07-18T02:41:57.755Z,75.40
2017-07-18T02:44:25.292Z,75.40
2017-07-18T02:46:53.183Z,75.40
2017-07-18T02:49:20.683Z,75.50
2017-07-18T02:51:49.196Z,75.50
2017-07-18T02:54:17.093Z,75.50
2017-07-18T02:56:44.639Z,75.50
2017-07-18T02:59:12.162Z,75.30
2017-07-18T03:01:40.770Z,75.20
2017-07-18T03:04:08.295Z,75.10
2017-07-18T03:06:35.819Z,75.00
2017-07-18T03:09:03.669Z,75.00
2017-07-18T03:11:31.215Z,75.00
2017-07-18T03:13:58.730Z,74.80
2017-07-18T03:16:26.554Z,74.80
2017-07-18T03:18:54.086Z,74.80
2017-07-18T03:21:22.369Z,74.70
2017-07-18T03:23:52.035Z,74.80
2017-07-18T03:26:19.555Z,74.80
2017-07-18T03:28:47.080Z,74.80
2017-07-18T03:31:16.967Z,74.90
2017-07-18T03:33:44.510Z,75.00
2017-07-18T03:36:12.029Z,75.10
2017-07-18T03:38:39.837Z,75.30
2017-07-18T03:41:07.375Z,75.20
2017-07-18T03:43:34.910Z,75.20
2017-07-18T03:46:02.754Z,75.40
2017-07-18T03:48:30.290Z,75.50
2017-07-18T03:50:57.826Z,75.50
2017-07-18T03:53:25.678Z,75.60
2017-07-18T03:55:53.185Z,75.50
2017-07-18T03:58:20.715Z,75.50
2017-07-18T04:00:48.614Z,75.50
2017-07-18T04:03:16.139Z,75.50
2017-07-18T04:05:43.697Z,75.60
2017-07-18T04:08:11.598Z,75.60
2017-07-18T04:10:39.121Z,75.70
2017-07-18T04:13:06.662Z,75.70
2017-07-18T04:15:35.229Z,75.70
2017-07-18T04:18:02.772Z,75.70
2017-07-18T04:20:30.302Z,75.80
2017-07-18T04:22:58.150Z,75.70
2017-07-18T04:25:25.660Z,75.70
2017-07-18T04:27:53.161Z,75.80
2017-07-18T04:30:20.982Z,75.80
2017-07-18T04:32:48.524Z,75.70
2017-07-18T04:35:16.055Z,75.70
2017-07-18T04:37:43.938Z,75.80
2017-07-18T04:40:11.477Z,75.70
2017-07-18T04:42:38.997Z,75.70
2017-07-18T04:45:06.878Z,75.70
2017-07-18T04:47:34.378Z,75.70
2017-07-18T04:50:01.906Z,75.70
2017-07-18T04:52:29.838Z,75.80
2017-07-18T04:54:58.363Z,75.80
2017-07-18T04:57:26.660Z,75.60
2017-07-18T04:59:54.479Z,75.60
2017-07-18T05:02:22.002Z,75.60
2017-07-18T05:04:49.532Z,75.80
2017-07-18T05:07:18.130Z,75.70
2017-07-18T05:09:45.677Z,75.70
2017-07-18T05:12:13.205Z,75.70
2017-07-18T05:14:41.040Z,75.60
2017-07-18T05:17:08.591Z,75.50
2017-07-18T05:19:36.109Z,75.30
2017-07-18T05:22:03.918Z,75.10
2017-07-18T05:24:31.467Z,74.90
2017-07-18T05:26:59.021Z,74.80
2017-07-18T05:29:26.845Z,74.60
2017-07-18T05:31:54.384Z,74.50
2017-07-18T05:34:21.912Z,74.40
2017-07-18T05:36:50.541Z,74.00
2017-07-18T05:39:18.066Z,74.00
2017-07-18T05:41:45.630Z,73.70
2017-07-18T05:44:13.448Z,73.50
2017-07-18T05:46:41.012Z,73.60
2017-07-18T05:49:08.576Z,73.60
2017-07-18T05:51:36.411Z,73.70
2017-07-18T05:54:03.936Z,73.80
2017-07-18T05:56:31.487Z,73.80
2017-07-18T05:59:00.117Z,73.60
2017-07-18T06:01:27.631Z,73.60
2017-07-18T06:03:55.931Z,73.00
2017-07-18T06:06:23.762Z,73.00
2017-07-18T06:08:52.060Z,72.60
2017-07-18T06:11:19.569Z,72.60
2017-07-18T06:13:47.450Z,72.60
2017-07-18T06:16:15.980Z,72.50
2017-07-18T06:18:43.576Z,72.30
2017-07-18T06:21:11.427Z,72.20
2017-07-18T06:23:38.984Z,71.90
2017-07-18T06:26:06.524Z,71.80
2017-07-18T06:28:34.363Z,71.30
2017-07-18T06:31:01.894Z,71.10
2017-07-18T06:33:29.426Z,70.90
2017-07-18T06:35:57.278Z,70.80
2017-07-18T06:38:24.867Z,70.70
2017-07-18T06:40:52.401Z,70.50
2017-07-18T06:43:21.158Z,70.30
2017-07-18T06:45:49.450Z,70.60
2017-07-18T06:48:17.766Z,69.50
2017-07-18T06:50:45.658Z,69.40
2017-07-18T06:53:13.173Z,69.50
2017-07-18T06:55:41.288Z,69.00
2017-07-18T06:58:09.121Z,68.70
2017-07-18T07:00:36.662Z,68.20
2017-07-18T07:03:04.204Z,68.10
2017-07-18T07:05:32.193Z,67.60
2017-07-18T07:08:01.531Z,67.10
2017-07-18T07:10:34.404Z,66.40
2017-07-18T07:13:02.920Z,66.10
2017-07-18T07:15:39.767Z,66.10
2017-07-18T07:18:09.209Z,65.50
2017-07-18T07:20:37.028Z,65.10
2017-07-18T07:23:04.558Z,65.10
2017-07-18T07:25:32.848Z,64.40
2017-07-18T07:28:01.527Z,64.40
2017-07-18T07:30:29.843Z,64.10
2017-07-18T07:32:58.375Z,64.00
2017-07-18T07:35:26.208Z,64.00
2017-07-18T07:37:53.746Z,63.80
2017-07-18T07:40:21.274Z,63.30
2017-07-18T07:42:49.907Z,63.20
2017-07-18T07:45:17.463Z,63.30
2017-07-18T07:47:44.989Z,63.30
2017-07-18T07:50:12.833Z,62.70
2017-07-18T07:52:41.768Z,61.40
2017-07-18T07:55:09.283Z,61.40
2017-07-18T07:57:37.116Z,60.70
2017-07-18T08:00:05.240Z,60.30
2017-07-18T08:02:32.874Z,60.10
2017-07-18T08:05:01.430Z,59.60
2017-07-18T08:07:28.967Z,59.60
2017-07-18T08:09:56.595Z,59.50
2017-07-18T08:12:24.430Z,58.60
2017-07-18T08:14:51.958Z,57.90
2017-07-18T08:17:19.484Z,56.50
2017-07-18T08:19:47.602Z,56.40
2017-07-18T08:22:15.150Z,55.70
2017-07-18T08:24:42.677Z,55.20
2017-07-18T08:27:10.623Z,54.50
2017-07-18T08:29:38.162Z,53.70
2017-07-18T08:32:05.723Z,52.90
2017-07-18T08:34:33.591Z,52.90
2017-07-18T08:37:01.114Z,52.40
2017-07-18T08:39:28.647Z,52.40
2017-07-18T08:41:56.460Z,52.00
2017-07-18T08:44:23.989Z,52.10
2017-07-18T08:46:52.294Z,51.50
2017-07-18T08:49:20.206Z,51.40
2017-07-18T08:51:47.715Z,51.20
2017-07-18T08:54:15.228Z,50.70
2017-07-18T08:56:43.065Z,50.50
2017-07-18T08:59:10.583Z,50.20
2017-07-18T09:01:38.108Z,50.40
2017-07-18T09:04:07.181Z,49.70
2017-07-18T09:23:52.633Z,47.40
2017-07-18T09:52:06.278Z,46.70
2017-07-18T09:54:56.644Z,47.00
2017-07-18T10:00:16.134Z,46.40
2017-07-18T10:14:05.607Z,45.60
2017-07-18T10:16:33.907Z,45.80
2017-07-18T10:22:15.904Z,44.60
2017-07-18T10:27:46.016Z,45.10
2017-07-18T10:30:14.837Z,45.00
2017-07-18T10:32:42.364Z,45.00
2017-07-18T10:35:09.863Z,44.80
2017-07-18T10:37:37.717Z,44.60
2017-07-18T10:40:05.248Z,44.50
2017-07-18T10:42:32.782Z,44.10
2017-07-18T10:45:00.626Z,44.10
2017-07-18T10:47:28.161Z,44.10
2017-07-18T10:49:55.679Z,44.30
2017-07-18T10:52:23.533Z,44.50
2017-07-18T10:54:51.082Z,44.90
2017-07-18T10:57:18.609Z,44.90
2017-07-18T10:59:47.294Z,45.30
2017-07-18T11:02:14.822Z,45.40
2017-07-18T11:04:42.341Z,45.30
2017-07-18T11:07:10.200Z,45.10
2017-07-18T11:09:38.513Z,45.00
2017-07-18T11:12:06.028Z,44.90
2017-07-18T11:14:35.584Z,44.70
2017-07-18T11:17:03.109Z,44.60
2017-07-18T11:19:30.646Z,44.40
2017-07-18T11:21:59.254Z,44.20
2017-07-18T11:24:26.814Z,44.10
2017-07-18T11:26:54.343Z,44.40
2017-07-18T11:29:22.176Z,44.30
2017-07-18T11:31:49.747Z,44.20
2017-07-18T11:34:17.276Z,44.50
2017-07-18T11:36:45.109Z,44.40
2017-07-18T11:39:12.651Z,44.40
2017-07-18T11:41:40.186Z,44.10
2017-07-18T11:44:08.054Z,43.70
2017-07-18T11:46:36.246Z,42.60
2017-07-18T11:49:03.777Z,41.10
2017-07-18T11:51:31.622Z,39.90
2017-07-18T11:53:59.144Z,39.50
2017-07-18T11:56:26.687Z,39.40
2017-07-18T11:58:54.520Z,38.60
2017-07-18T12:01:22.048Z,38.40
2017-07-18T12:03:49.592Z,37.30
2017-07-18T12:06:17.449Z,36.70
2017-07-18T12:08:44.978Z,35.80
2017-07-18T12:11:12.551Z,35.40
2017-07-18T12:13:40.621Z,35.20
2017-07-18T12:16:08.150Z,35.00
2017-07-18T12:18:47.874Z,35.40
2017-07-18T12:21:15.393Z,35.30
2017-07-18T12:23:42.942Z,34.50
2017-07-18T12:26:10.805Z,34.50
2017-07-18T12:28:38.343Z,34.50
2017-07-18T12:31:05.888Z,35.30
2017-07-18T12:33:34.611Z,36.40
2017-07-18T12:36:02.143Z,36.30
2017-07-18T12:38:29.658Z,36.80
2017-07-18T12:40:59.051Z,37.00
2017-07-18T12:43:26.595Z,37.30
2017-07-18T12:45:54.138Z,36.40
2017-07-18T12:48:22.052Z,35.70
2017-07-18T12:50:49.551Z,34.70
2017-07-18T12:53:18.049Z,34.00
2017-07-18T12:55:45.930Z,33.70
2017-07-18T12:58:13.460Z,34.10
2017-07-18T13:00:41.837Z,33.90
2017-07-18T13:03:09.648Z,33.80
2017-07-18T13:05:38.174Z,33.40
2017-07-18T13:08:05.712Z,31.70
2017-07-18T13:10:33.545Z,31.30
2017-07-18T13:13:01.113Z,31.60
2017-07-18T13:15:28.631Z,32.40
2017-07-18T13:17:57.223Z,32.70
2017-07-18T13:20:25.538Z,32.60
2017-07-18T13:22:53.062Z,32.50
2017-07-18T13:25:20.981Z,32.60
2017-07-18T13:27:48.511Z,33.10
2017-07-18T13:30:16.480Z,33.10
2017-07-18T13:32:44.294Z,32.50
2017-07-18T13:35:11.832Z,32.20
2017-07-18T13:37:39.362Z,32.10
2017-07-18T13:40:07.248Z,31.90
2017-07-18T13:42:34.772Z,31.70
2017-07-18T13:45:02.302Z,31.20
2017-07-18T13:47:30.106Z,30.50
2017-07-18T13:49:57.635Z,29.80
2017-07-18T13:52:25.158Z,29.70
2017-07-18T13:54:53.033Z,29.50
2017-07-18T13:57:22.575Z,29.30
2017-07-18T13:59:50.118Z,29.10
2017-07-18T14:02:17.968Z,29.00
2017-07-18T14:04:45.511Z,29.40
2017-07-18T14:07:13.047Z,29.60
2017-07-18T14:09:40.932Z,30.10
2017-07-18T14:12:08.440Z,31.00
2017-07-18T14:14:35.991Z,31.70
2017-07-18T14:17:03.855Z,32.60
2017-07-18T14:19:31.398Z,33.30
2017-07-18T14:21:58.948Z,33.80
2017-07-18T14:24:26.824Z,34.30
2017-07-18T14:26:54.414Z,34.80
2017-07-18T14:29:21.947Z,35.30
2017-07-18T14:31:49.738Z,35.60
2017-07-18T14:34:17.281Z,36.30
2017-07-18T14:36:44.815Z,36.90
2017-07-18T14:39:12.636Z,37.10
2017-07-18T14:41:40.178Z,37.20
2017-07-18T14:44:08.500Z,37.80
2017-07-18T14:46:37.127Z,38.10
2017-07-18T14:49:04.699Z,38.10
2017-07-18T14:51:32.220Z,38.20
2017-07-18T14:54:00.064Z,38.20
2017-07-18T14:56:28.396Z,38.80
2017-07-18T14:58:55.926Z,38.80
2017-07-18T15:01:23.808Z,38.90
2017-07-18T15:03:51.360Z,39.10
2017-07-18T15:06:18.899Z,39.50
2017-07-18T15:08:46.722Z,39.60
2017-07-18T15:11:14.254Z,39.00
2017-07-18T15:13:41.824Z,38.20
2017-07-18T15:16:09.699Z,36.90
2017-07-18T15:18:37.221Z,35.90
2017-07-18T15:21:04.764Z,35.10
2017-07-18T15:23:32.678Z,34.30
2017-07-18T15:26:00.206Z,33.30
2017-07-18T15:28:28.479Z,32.60
2017-07-18T15:30:57.083Z,32.60
2017-07-18T15:33:24.645Z,32.50
2017-07-18T15:35:52.187Z,32.50
2017-07-18T15:38:20.824Z,31.70
2017-07-18T15:40:48.363Z,31.60
2017-07-18T15:43:15.947Z,31.70
2017-07-18T15:45:43.816Z,31.40
2017-07-18T15:48:11.344Z,31.20
2017-07-18T15:50:38.884Z,30.80
2017-07-18T15:53:06.780Z,30.90
2017-07-18T15:55:34.309Z,30.50
2017-07-18T15:58:02.608Z,30.50
2017-07-18T16:00:30.449Z,30.50
2017-07-18T16:02:58.737Z,30.70
2017-07-18T16:05:26.233Z,30.70
2017-07-18T16:07:54.083Z,30.80
2017-07-18T16:10:21.595Z,31.00
2017-07-18T16:12:49.125Z,30.90
2017-07-18T16:15:16.991Z,31.60
2017-07-18T16:17:44.536Z,31.60
2017-07-18T16:20:12.072Z,31.40
2017-07-18T16:22:39.981Z,31.30
2017-07-18T16:25:07.531Z,31.30
2017-07-18T16:27:35.077Z,31.50
2017-07-18T16:30:02.902Z,32.20
2017-07-18T16:32:30.397Z,32.80
2017-07-18T16:34:57.942Z,33.50
2017-07-18T16:37:25.877Z,34.20
2017-07-18T16:39:53.434Z,34.60
2017-07-18T16:42:20.972Z,34.30
2017-07-18T16:44:48.805Z,34.20
2017-07-18T16:47:16.307Z,34.10
2017-07-18T16:49:43.820Z,34.00
2017-07-18T16:52:11.698Z,33.90
2017-07-18T16:54:39.223Z,33.50
2017-07-18T16:57:06.747Z,33.30
2017-07-18T16:59:34.636Z,33.50
2017-07-18T17:02:02.187Z,33.80
2017-07-18T17:04:29.731Z,34.40
2017-07-18T17:06:57.555Z,34.50
2017-07-18T17:09:25.883Z,34.60
2017-07-18T17:11:53.403Z,34.60
2017-07-18T17:14:22.036Z,34.40
2017-07-18T17:16:49.574Z,34.30
2017-07-18T17:19:17.116Z,34.30
2017-07-18T17:21:45.029Z,34.40
2017-07-18T17:24:12.540Z,34.30
2017-07-18T17:26:40.063Z,34.40
2017-07-18T17:29:07.907Z,34.90
2017-07-18T17:31:35.445Z,35.20
2017-07-18T17:34:02.990Z,35.30
2017-07-18T17:36:30.832Z,35.60
2017-07-18T17:38:59.122Z,35.40
2017-07-18T17:41:26.648Z,36.00
2017-07-18T17:43:54.499Z,35.50
2017-07-18T17:46:22.025Z,35.60
2017-07-18T17:48:49.570Z,35.60
2017-07-18T17:51:18.222Z,36.00
2017-07-18T17:53:45.750Z,36.00
2017-07-18T17:56:13.294Z,36.20
2017-07-18T17:58:41.190Z,36.50
2017-07-18T18:01:08.717Z,36.70
2017-07-18T18:03:36.249Z,36.70
2017-07-18T18:06:04.186Z,36.90
2017-07-18T18:08:31.726Z,37.10
2017-07-18T18:10:59.256Z,37.60
2017-07-18T18:13:27.908Z,38.60
2017-07-18T18:15:55.452Z,38.50
2017-07-18T18:18:22.984Z,39.00
2017-07-18T18:20:50.879Z,39.40
2017-07-18T18:23:18.438Z,39.70
2017-07-18T18:25:45.967Z,40.10
2017-07-18T18:28:13.891Z,40.50
2017-07-18T18:30:41.431Z,40.70
2017-07-18T18:33:08.954Z,41.10
2017-07-18T18:35:36.770Z,41.60
2017-07-18T18:38:04.323Z,42.10
2017-07-18T18:40:31.855Z,42.30
2017-07-18T18:42:59.721Z,42.50
2017-07-18T18:45:27.275Z,42.80
2017-07-18T18:47:54.836Z,43.80
2017-07-18T18:50:22.666Z,43.30
2017-07-18T18:52:51.693Z,43.70
2017-07-18T18:55:19.278Z,43.80
2017-07-18T18:57:48.189Z,44.30
2017-07-18T19:00:15.731Z,44.40
2017-07-18T19:02:43.257Z,44.70
2017-07-18T19:05:11.069Z,45.00
2017-07-18T19:07:38.601Z,45.30
2017-07-18T19:10:06.154Z,45.80
2017-07-18T19:12:34.080Z,46.00
2017-07-18T19:15:01.632Z,46.40
2017-07-18T19:17:29.208Z,46.60
2017-07-18T19:19:57.003Z,47.00
2017-07-18T19:22:28.462Z,47.30
2017-07-18T19:24:56.026Z,47.40
2017-07-18T19:27:23.885Z,47.70
2017-07-18T19:29:51.405Z,48.10
2017-07-18T19:32:18.960Z,48.30
2017-07-18T19:34:46.785Z,48.70
2017-07-18T19:37:14.303Z,49.00
2017-07-18T19:39:41.837Z,49.20
2017-07-18T19:42:09.711Z,49.30
2017-07-18T19:44:37.255Z,49.60
2017-07-18T19:47:04.833Z,49.80
2017-07-18T19:49:32.803Z,49.90
2017-07-18T19:52:00.375Z,50.30
2017-07-18T19:54:27.915Z,50.40
2017-07-18T19:56:56.724Z,50.60
2017-07-18T19:59:24.294Z,51.30
2017-07-18T20:01:51.832Z,51.00
2017-07-18T20:04:19.794Z,51.30
2017-07-18T20:06:48.283Z,51.40
2017-07-18T20:09:15.872Z,51.50
2017-07-18T20:11:43.833Z,51.70
2017-07-18T20:14:13.370Z,52.00
2017-07-18T20:16:40.904Z,51.90
2017-07-18T20:19:08.771Z,52.10
2017-07-18T20:21:36.344Z,52.30
2017-07-18T20:24:03.866Z,52.40
2017-07-18T20:26:31.729Z,52.50
2017-07-18T20:28:59.325Z,52.70
2017-07-18T20:31:27.641Z,52.70
2017-07-18T20:33:55.558Z,52.70
2017-07-18T20:36:23.245Z,52.90
2017-07-18T20:38:50.808Z,53.10
2017-07-18T20:41:19.705Z,53.30
2017-07-18T20:43:47.219Z,53.80
2017-07-18T20:46:14.782Z,53.90
2017-07-18T20:48:43.457Z,54.20
2017-07-18T20:51:11.325Z,54.20
2017-07-18T20:53:38.869Z,54.40
2017-07-18T20:56:06.688Z,54.80
2017-07-18T20:58:35.027Z,54.90
2017-07-18T21:01:02.543Z,54.90
2017-07-18T21:03:30.465Z,55.00
2017-07-18T21:05:57.967Z,55.00
2017-07-18T21:08:25.513Z,55.10
2017-07-18T21:10:53.458Z,55.00
2017-07-18T21:13:20.982Z,55.30
2017-07-18T21:15:48.540Z,55.50
2017-07-18T21:18:16.548Z,55.60
2017-07-18T21:20:44.086Z,55.70
2017-07-18T21:23:11.607Z,55.90
2017-07-18T21:25:39.526Z,56.10
2017-07-18T21:28:07.052Z,56.10
2017-07-18T21:30:34.585Z,56.30
2017-07-18T21:33:03.200Z,56.70
2017-07-18T21:35:30.721Z,56.70
2017-07-18T21:37:59.035Z,57.00
2017-07-18T21:40:26.954Z,57.10
2017-07-18T21:42:54.500Z,57.20
2017-07-18T21:45:22.052Z,57.30
2017-07-18T21:47:49.908Z,57.50
2017-07-18T21:50:17.476Z,57.60
2017-07-18T21:52:45.034Z,57.70
2017-07-18T21:55:12.866Z,57.80
2017-07-18T21:57:40.486Z,57.90
2017-07-18T22:00:08.015Z,58.20
2017-07-18T22:02:35.920Z,58.30
2017-07-18T22:05:03.428Z,58.60
2017-07-18T22:07:30.960Z,58.70
2017-07-18T22:09:59.634Z,58.90
2017-07-18T22:12:27.169Z,58.90
2017-07-18T22:14:54.768Z,58.90
2017-07-18T22:17:23.422Z,59.20
2017-07-18T22:19:50.953Z,59.10
2017-07-18T22:22:18.506Z,59.20
2017-07-18T22:24:46.418Z,59.30
2017-07-18T22:27:13.972Z,60.00
2017-07-18T22:29:41.501Z,59.50
2017-07-18T22:32:09.394Z,59.70
2017-07-18T22:34:36.917Z,59.70
2017-07-18T22:37:04.438Z,59.70
2017-07-18T22:39:32.390Z,59.70
2017-07-18T22:41:59.910Z,59.50
2017-07-18T22:44:27.469Z,59.50
2017-07-18T22:46:55.311Z,59.70
2017-07-18T22:49:23.706Z,59.60
2017-07-18T22:51:51.995Z,59.70
2017-07-18T22:54:20.853Z,59.70
2017-07-18T22:56:49.151Z,59.90
2017-07-18T22:59:16.768Z,60.00
2017-07-18T23:01:44.616Z,60.10
2017-07-18T23:04:12.132Z,60.20
2017-07-18T23:06:40.441Z,60.50
2017-07-18T23:09:08.343Z,60.50
2017-07-18T23:11:35.879Z,60.70
2017-07-18T23:14:03.407Z,60.90
2017-07-18T23:16:31.312Z,61.10
2017-07-18T23:19:02.296Z,61.30
2017-07-18T23:21:29.824Z,61.50
2017-07-18T23:23:57.700Z,61.70
2017-07-18T23:26:25.215Z,61.90
2017-07-18T23:28:52.748Z,62.10
2017-07-18T23:31:21.481Z,62.40
2017-07-18T23:33:50.967Z,62.40
2017-07-18T23:36:18.504Z,62.60
2017-07-18T23:38:47.147Z,62.80
2017-07-18T23:41:14.698Z,62.80
2017-07-18T23:43:43.242Z,63.00
2017-07-18T23:46:11.178Z,63.20
2017-07-18T23:48:38.705Z,63.50
2017-07-18T23:51:06.225Z,63.50
2017-07-18T23:53:34.068Z,63.60
2017-07-18T23:56:01.590Z,63.70
2017-07-18T23:58:29.111Z,64.40
